Time;durP1;ratioP1;P1;durP2;ratioP2;P2;SDS_P1;SDS_P2;PMS_P1;PMS_P2;Temp;Humidity;BMP_temperature;BMP_pressure;BME280_temperature;BME280_humidity;BME280_pressure;Samples;Min_cycle;Max_cycle;Signal;HPM_P1;HPM_P2
2023/04/08 00:00:44;;;;;;;3.53;1.50;;;19.50;52.30;;;;;;4935553;29;20047;-62
2023/04/08 00:03:09;;;;;;;2.58;1.25;;;19.50;52.30;;;;;;4934205;29;20040;-63
2023/04/08 00:05:35;;;;;;;2.53;1.30;;;19.50;52.30;;;;;;4935055;29;20518;-62
2023/04/08 00:08:00;;;;;;;4.43;1.70;;;19.50;52.30;;;;;;4934817;29;20055;-63
2023/04/08 00:10:26;;;;;;;4.50;1.75;;;19.50;52.30;;;;;;4934786;29;20044;-63
2023/04/08 00:12:52;;;;;;;2.90;1.50;;;19.50;52.30;;;;;;4935501;29;20484;-62
2023/04/08 00:15:17;;;;;;;2.45;1.33;;;19.50;52.30;;;;;;4939451;29;20452;-63
2023/04/08 00:17:44;;;;;;;2.47;1.40;;;19.50;52.20;;;;;;4953301;29;20039;-62
2023/04/08 00:20:09;;;;;;;2.50;1.55;;;19.40;52.10;;;;;;4924486;29;20078;-62
2023/04/08 00:22:35;;;;;;;2.97;1.20;;;19.40;52.10;;;;;;4917992;29;20083;-62
2023/04/08 00:25:01;;;;;;;4.60;1.40;;;19.40;52.10;;;;;;4934025;29;20086;-62
2023/04/08 00:27:27;;;;;;;3.08;1.48;;;19.40;52.10;;;;;;4935273;29;20071;-63
2023/04/08 00:29:52;;;;;;;2.28;1.25;;;19.40;52.10;;;;;;4935318;29;20083;-63
2023/04/08 00:32:18;;;;;;;2.40;1.50;;;19.40;52.10;;;;;;4937658;29;20039;-63
2023/04/08 00:34:43;;;;;;;2.00;1.33;;;19.40;52.10;;;;;;4945859;29;20043;-63
2023/04/08 00:37:09;;;;;;;3.47;1.50;;;19.40;52.00;;;;;;4917568;29;20043;-63
2023/04/08 00:39:36;;;;;;;2.35;1.50;;;19.30;52.00;;;;;;4934377;29;20119;-63
2023/04/08 00:42:02;;;;;;;3.35;1.40;;;19.30;52.00;;;;;;4937214;29;20048;-62
2023/04/08 00:44:27;;;;;;;3.97;1.30;;;19.30;52.00;;;;;;4921807;29;20126;-63
2023/04/08 00:46:53;;;;;;;2.92;1.20;;;19.30;51.90;;;;;;4937940;29;20450;-63
2023/04/08 00:49:18;;;;;;;1.85;1.27;;;19.30;51.90;;;;;;4912412;29;20523;-63
2023/04/08 00:51:44;;;;;;;2.38;1.15;;;19.30;51.90;;;;;;4920563;29;20083;-63
2023/04/08 00:54:09;;;;;;;2.40;1.25;;;19.30;51.90;;;;;;4921494;29;20048;-63
2023/04/08 00:56:35;;;;;;;2.45;1.25;;;19.30;51.80;;;;;;4938762;29;20086;-63
2023/04/08 00:59:01;;;;;;;4.57;1.60;;;19.30;51.80;;;;;;4904736;29;20047;-63
2023/04/08 01:01:32;;;;;;;3.78;1.30;;;19.30;51.80;;;;;;4905940;29;20051;-63
2023/04/08 01:04:21;;;;;;;2.25;1.13;;;19.30;51.80;;;;;;4937908;29;20063;-63
2023/04/08 01:06:58;;;;;;;2.65;1.30;;;19.30;51.80;;;;;;4921102;29;20051;-63
2023/04/08 01:09:26;;;;;;;2.35;1.23;;;19.30;51.90;;;;;;4921495;29;20067;-63
2023/04/08 01:11:51;;;;;;;2.03;1.33;;;19.30;51.90;;;;;;4905807;29;20051;-63
2023/04/08 01:14:20;;;;;;;3.42;1.30;;;19.30;51.80;;;;;;4888899;29;20101;-63
2023/04/08 01:16:45;;;;;;;;;;;19.20;51.80;;;;;;4921760;29;20050;-63
2023/04/08 01:19:16;;;;;;;1.88;1.25;;;19.20;51.80;;;;;;4920412;29;19922;-63
2023/04/08 01:21:42;;;;;;;2.42;1.15;;;19.20;51.80;;;;;;4905213;29;20522;-63
2023/04/08 01:24:17;;;;;;;1.90;1.23;;;19.30;51.80;;;;;;4904808;29;20052;-63
2023/04/08 01:26:42;;;;;;;2.78;1.17;;;19.20;51.70;;;;;;4890218;29;20066;-63
2023/04/08 01:29:08;;;;;;;2.35;1.30;;;19.20;51.70;;;;;;4919834;29;20040;-63
2023/04/08 01:31:34;;;;;;;2.00;1.20;;;19.20;51.70;;;;;;4930520;29;20139;-63
2023/04/08 01:34:00;;;;;;;2.70;1.40;;;19.20;51.70;;;;;;4922986;29;20490;-63
2023/04/08 01:36:25;;;;;;;2.65;1.17;;;19.20;51.70;;;;;;4924085;29;20062;-63
2023/04/08 01:38:51;;;;;;;4.22;1.40;;;19.20;51.70;;;;;;4956888;29;20047;-63
2023/04/08 01:41:17;;;;;;;2.65;1.38;;;19.20;51.70;;;;;;4938768;29;20050;-63
2023/04/08 01:43:42;;;;;;;2.70;1.30;;;19.20;51.70;;;;;;4956927;29;20219;-63
2023/04/08 01:46:08;;;;;;;3.17;1.48;;;19.20;51.70;;;;;;4939255;29;20062;-63
2023/04/08 01:48:34;;;;;;;2.05;1.20;;;19.20;51.70;;;;;;4923230;29;20046;-63
2023/04/08 01:50:59;;;;;;;2.55;1.20;;;19.20;51.70;;;;;;4923335;29;20142;-63
2023/04/08 01:53:25;;;;;;;2.70;1.40;;;19.10;51.60;;;;;;4923340;29;20135;-63
2023/04/08 01:55:54;;;;;;;1.85;1.30;;;19.10;51.60;;;;;;4938638;29;20036;-63
2023/04/08 01:58:20;;;;;;;2.28;1.15;;;19.20;51.70;;;;;;4923855;29;20051;-63
2023/04/08 02:00:46;;;;;;;1.92;1.20;;;19.10;51.60;;;;;;4939426;29;20041;-63
2023/04/08 02:03:11;;;;;;;2.95;1.50;;;19.20;51.60;;;;;;4938018;29;20054;-63
2023/04/08 02:05:38;;;;;;;2.58;1.10;;;19.10;51.60;;;;;;4938733;29;20130;-63
2023/04/08 02:08:03;;;;;;;2.63;1.27;;;19.10;51.70;;;;;;4923257;29;20525;-63
2023/04/08 02:10:29;;;;;;;3.28;1.23;;;19.20;51.70;;;;;;4955611;29;20051;-63
2023/04/08 02:12:55;;;;;;;2.88;1.30;;;19.20;51.80;;;;;;4956065;29;20138;-63
2023/04/08 02:15:20;;;;;;;3.00;1.10;;;19.20;51.70;;;;;;4939010;29;20511;-63
2023/04/08 02:17:54;;;;;;;3.17;1.27;;;19.10;51.70;;;;;;4955629;29;20118;-63
2023/04/08 02:20:25;;;;;;;2.83;1.27;;;19.20;51.70;;;;;;4939868;29;20093;-63
2023/04/08 02:23:15;;;;;;;1.98;1.02;;;19.10;51.70;;;;;;4923401;29;20491;-63
2023/04/08 02:25:43;;;;;;;1.92;1.20;;;19.10;51.70;;;;;;4938666;29;20045;-63
2023/04/08 02:28:09;;;;;;;2.45;1.27;;;19.10;52.40;;;;;;4938816;29;20049;-63
2023/04/08 02:30:36;;;;;;;2.22;1.10;;;19.20;51.70;;;;;;4938126;29;20047;-63
2023/04/08 02:33:03;;;;;;;3.88;1.50;;;19.20;51.80;;;;;;4938769;29;20046;-63
2023/04/08 02:35:29;;;;;;;3.35;1.30;;;19.20;51.80;;;;;;4955991;29;20043;-62
2023/04/08 02:37:55;;;;;;;2.25;1.10;;;19.20;51.90;;;;;;4922015;29;20118;-63
2023/04/08 02:40:24;;;;;;;2.30;1.10;;;19.20;51.80;;;;;;4955583;29;20412;-62
2023/04/08 02:42:50;;;;;;;1.90;1.20;;;19.20;51.90;;;;;;4956078;29;20044;-62
2023/04/08 02:45:16;;;;;;;2.35;1.13;;;19.20;51.90;;;;;;4937327;29;20043;-62
2023/04/08 02:47:41;;;;;;;2.22;1.20;;;19.20;51.80;;;;;;4922789;29;20043;-63
2023/04/08 02:50:07;;;;;;;3.13;1.30;;;19.30;51.90;;;;;;4937662;29;20047;-63
2023/04/08 02:52:33;;;;;;;2.42;1.30;;;19.30;52.00;;;;;;4954717;29;20054;-62
2023/04/08 02:54:58;;;;;;;2.28;1.25;;;19.20;52.20;;;;;;4954929;29;20058;-63
2023/04/08 02:57:24;;;;;;;2.42;0.85;;;19.30;52.00;;;;;;4955618;29;20039;-63
2023/04/08 02:59:49;;;;;;;2.47;1.30;;;19.30;52.00;;;;;;4954544;29;20047;-63
2023/04/08 03:02:16;;;;;;;2.40;1.17;;;19.30;52.00;;;;;;4937999;29;20043;-63
2023/04/08 03:04:41;;;;;;;2.95;1.35;;;19.30;51.90;;;;;;4954446;28;20122;-63
2023/04/08 03:07:07;;;;;;;2.25;1.17;;;19.30;51.90;;;;;;4954086;29;20181;-63
2023/04/08 03:09:32;;;;;;;2.00;1.05;;;19.30;51.90;;;;;;4938124;29;20047;-63
2023/04/08 03:11:58;;;;;;;2.65;1.20;;;19.40;52.00;;;;;;4954863;29;20122;-61
2023/04/08 03:14:24;;;;;;;2.35;1.02;;;19.40;51.90;;;;;;4954532;29;20431;-63
2023/04/08 03:16:49;;;;;;;2.55;1.10;;;19.40;52.00;;;;;;4937656;29;20406;-63
2023/04/08 03:19:15;;;;;;;2.53;1.30;;;19.40;52.00;;;;;;4954910;29;20051;-63
2023/04/08 03:21:40;;;;;;;1.92;1.23;;;19.40;51.90;;;;;;4954036;29;20047;-63
2023/04/08 03:24:06;;;;;;;2.38;1.15;;;19.50;52.00;;;;;;4954858;29;20047;-63
2023/04/08 03:26:31;;;;;;;2.15;1.20;;;19.50;52.00;;;;;;4936563;29;20558;-63
2023/04/08 03:28:57;;;;;;;1.50;0.90;;;19.50;51.90;;;;;;4954938;29;20491;-63
2023/04/08 03:31:22;;;;;;;2.03;1.13;;;19.50;51.90;;;;;;4954910;29;20407;-63
2023/04/08 03:33:48;;;;;;;2.15;1.35;;;19.50;51.90;;;;;;4954263;29;20780;-63
2023/04/08 03:36:14;;;;;;;2.10;1.10;;;19.50;51.80;;;;;;4954519;29;20336;-63
2023/04/08 03:38:39;;;;;;;1.85;1.00;;;19.50;51.90;;;;;;4937569;29;20153;-63
2023/04/08 03:41:05;;;;;;;2.10;1.10;;;19.60;51.90;;;;;;4936000;29;20097;-63
2023/04/08 03:43:31;;;;;;;2.15;1.13;;;19.60;51.90;;;;;;4954642;29;20035;-63
2023/04/08 03:45:57;;;;;;;2.08;1.20;;;19.60;51.90;;;;;;4954304;29;20039;-63
2023/04/08 03:48:22;;;;;;;2.20;0.95;;;19.60;51.90;;;;;;4936671;29;20657;-63
2023/04/08 03:50:48;;;;;;;2.13;1.10;;;19.70;51.90;;;;;;4954298;29;20063;-63
2023/04/08 03:53:13;;;;;;;1.38;0.90;;;19.70;51.90;;;;;;4954398;29;20169;-63
2023/04/08 03:55:39;;;;;;;1.80;1.00;;;19.70;51.90;;;;;;4936400;29;20047;-62
2023/04/08 03:58:05;;;;;;;2.22;0.90;;;19.70;51.90;;;;;;4937389;29;20137;-63
2023/04/08 04:00:30;;;;;;;2.40;1.20;;;19.70;51.90;;;;;;4936847;29;20044;-63
2023/04/08 04:02:56;;;;;;;1.48;0.90;;;19.70;51.80;;;;;;4952883;29;20043;-63
2023/04/08 04:05:22;;;;;;;2.28;1.02;;;19.70;51.80;;;;;;4951377;29;20493;-63
2023/04/08 04:07:47;;;;;;;2.28;1.00;;;19.70;51.70;;;;;;4935055;29;20040;-63
2023/04/08 04:10:13;;;;;;;2.22;1.10;;;19.80;51.80;;;;;;4934042;29;20164;-63
2023/04/08 04:12:38;;;;;;;2.45;1.10;;;19.80;51.70;;;;;;4935288;29;20048;-63
2023/04/08 04:15:05;;;;;;;1.75;1.05;;;19.80;51.70;;;;;;4917735;29;20403;-62
2023/04/08 04:17:30;;;;;;;2.47;1.05;;;19.80;51.70;;;;;;4934636;29;20169;-62
2023/04/08 04:19:56;;;;;;;1.80;1.17;;;19.80;51.80;;;;;;4917659;29;20073;-62
2023/04/08 04:22:21;;;;;;;1.95;1.25;;;19.80;51.70;;;;;;4935451;29;20055;-62
2023/04/08 04:24:48;;;;;;;2.25;1.00;;;19.80;51.60;;;;;;4917083;29;20500;-62
2023/04/08 04:27:14;;;;;;;1.60;0.90;;;19.80;51.60;;;;;;4935015;29;20064;-62
2023/04/08 04:29:39;;;;;;;2.53;1.00;;;19.80;51.60;;;;;;4935373;29;20054;-63
2023/04/08 04:32:05;;;;;;;1.60;0.95;;;19.80;51.60;;;;;;4934310;29;20039;-62
2023/04/08 04:34:31;;;;;;;2.40;1.08;;;19.90;51.70;;;;;;4917849;29;20130;-62
2023/04/08 04:36:56;;;;;;;1.38;0.82;;;19.90;51.70;;;;;;4934074;29;20052;-63
2023/04/08 04:39:22;;;;;;;2.15;1.00;;;19.90;51.70;;;;;;4935316;29;20047;-63
2023/04/08 04:41:48;;;;;;;1.63;0.98;;;19.90;51.60;;;;;;4934949;29;20054;-63
2023/04/08 04:44:13;;;;;;;1.80;1.10;;;19.90;51.60;;;;;;4916754;29;20053;-63
2023/04/08 04:46:39;;;;;;;1.60;1.20;;;19.90;51.60;;;;;;4935198;29;20054;-63
2023/04/08 04:49:05;;;;;;;2.10;1.02;;;19.90;51.60;;;;;;4934500;29;20050;-62
2023/04/08 04:51:32;;;;;;;1.60;1.00;;;19.90;51.60;;;;;;4936687;29;20059;-63
2023/04/08 04:53:57;;;;;;;2.42;1.15;;;19.90;51.60;;;;;;4936360;29;20087;-63
2023/04/08 04:56:24;;;;;;;1.55;1.02;;;19.90;51.60;;;;;;4929725;29;20129;-63
2023/04/08 04:58:49;;;;;;;1.67;1.10;;;19.90;51.60;;;;;;4934299;29;20062;-63
2023/04/08 05:01:15;;;;;;;2.00;1.10;;;19.90;51.60;;;;;;4934430;29;20483;-63
2023/04/08 05:03:40;;;;;;;1.70;1.05;;;19.90;51.60;;;;;;4942126;29;20039;-63
2023/04/08 05:06:06;;;;;;;1.73;1.10;;;19.90;51.60;;;;;;4948218;29;20043;-63
2023/04/08 05:08:31;;;;;;;1.92;1.00;;;19.90;51.60;;;;;;4918000;29;20050;-63
2023/04/08 05:11:00;;;;;;;2.97;1.08;;;19.90;51.60;;;;;;4934069;29;20377;-63
2023/04/08 05:13:29;;;;;;;2.33;1.00;;;20.00;51.60;;;;;;4934026;29;20119;-63
2023/04/08 05:15:54;;;;;;;;;;;20.00;52.30;;;;;;4918126;29;20047;-62
2023/04/08 05:18:20;;;;;;;1.80;1.00;;;19.90;51.60;;;;;;4917626;29;19922;-63
2023/04/08 05:20:45;;;;;;;1.92;0.90;;;19.90;51.60;;;;;;4933806;29;20059;-62
2023/04/08 05:23:11;;;;;;;1.73;1.08;;;19.90;51.60;;;;;;4934423;29;20043;-63
2023/04/08 05:25:37;;;;;;;2.25;1.08;;;20.00;51.60;;;;;;4934504;29;20135;-62
2023/04/08 05:28:02;;;;;;;1.98;1.13;;;20.00;51.60;;;;;;4936052;29;20040;-62
2023/04/08 05:30:28;;;;;;;2.10;0.98;;;20.00;51.60;;;;;;4921063;29;20051;-62
2023/04/08 05:32:54;;;;;;;1.67;1.10;;;20.00;51.60;;;;;;4920864;29;20566;-62
2023/04/08 05:35:20;;;;;;;2.00;1.00;;;20.00;51.60;;;;;;4937084;29;20052;-62
2023/04/08 05:37:45;;;;;;;1.80;1.00;;;20.00;51.60;;;;;;4937592;29;20042;-62
2023/04/08 05:40:11;;;;;;;3.55;1.27;;;20.00;51.60;;;;;;4936459;29;20052;-62
2023/04/08 05:42:36;;;;;;;1.95;1.00;;;20.00;51.60;;;;;;4937641;29;20479;-63
2023/04/08 05:45:02;;;;;;;1.55;0.90;;;20.00;51.60;;;;;;4937343;29;20079;-63
2023/04/08 05:47:28;;;;;;;1.88;1.08;;;20.00;51.60;;;;;;4937009;29;20075;-63
2023/04/08 05:49:53;;;;;;;2.33;1.00;;;20.00;51.60;;;;;;4920287;29;20047;-63
2023/04/08 05:52:19;;;;;;;1.83;1.17;;;20.00;51.70;;;;;;4937778;29;20054;-63
2023/04/08 05:54:45;;;;;;;1.42;0.82;;;20.00;52.40;;;;;;4937089;29;20056;-63
2023/04/08 05:57:10;;;;;;;2.33;0.88;;;20.00;51.70;;;;;;4937039;29;20124;-63
2023/04/08 05:59:36;;;;;;;1.77;0.80;;;20.00;51.60;;;;;;4937765;29;20373;-63
2023/04/08 06:02:02;;;;;;;1.98;1.10;;;20.00;51.60;;;;;;4936351;29;20476;-62
2023/04/08 06:04:27;;;;;;;1.75;1.00;;;20.00;51.60;;;;;;4937110;29;21111;-63
2023/04/08 06:06:53;;;;;;;1.65;0.70;;;20.00;51.60;;;;;;4937522;29;20090;-63
2023/04/08 06:09:18;;;;;;;2.05;1.20;;;20.00;51.70;;;;;;4936219;29;20044;-63
2023/04/08 06:11:46;;;;;;;2.03;0.98;;;20.00;51.60;;;;;;4920101;29;20097;-63
2023/04/08 06:14:11;;;;;;;1.67;1.10;;;20.00;52.30;;;;;;4937149;29;20087;-63
2023/04/08 06:16:37;;;;;;;1.15;0.70;;;20.00;51.60;;;;;;4936555;29;20078;-63
2023/04/08 06:19:02;;;;;;;1.60;0.95;;;20.00;51.60;;;;;;4936584;29;20082;-63
2023/04/08 06:21:28;;;;;;;2.17;1.00;;;20.00;51.60;;;;;;4937276;29;20032;-63
2023/04/08 06:23:53;;;;;;;2.05;0.85;;;20.00;51.60;;;;;;4936514;29;20504;-63
2023/04/08 06:26:19;;;;;;;1.73;0.88;;;20.00;51.60;;;;;;4936672;29;20517;-63
2023/04/08 06:28:44;;;;;;;1.35;0.90;;;20.00;51.60;;;;;;4936979;29;20036;-63
2023/04/08 06:31:10;;;;;;;1.55;0.98;;;20.00;51.50;;;;;;4935832;29;20058;-63
2023/04/08 06:33:36;;;;;;;2.72;1.00;;;20.00;51.50;;;;;;4936625;29;20044;-63
2023/04/08 06:36:06;;;;;;;1.63;1.23;;;20.00;51.50;;;;;;4919345;29;20103;-65
2023/04/08 06:38:31;;;;;;;1.83;0.80;;;20.00;51.50;;;;;;4917984;29;20399;-64
2023/04/08 06:41:04;;;;;;;2.00;1.10;;;20.10;51.50;;;;;;4936365;29;20044;-63
2023/04/08 06:43:30;;;;;;;3.45;1.20;;;20.10;51.50;;;;;;4936196;29;20050;-63
2023/04/08 06:45:56;;;;;;;2.28;1.00;;;20.10;51.50;;;;;;4919066;29;20043;-63
2023/04/08 06:48:27;;;;;;;2.33;1.20;;;20.10;51.50;;;;;;4936486;29;20095;-62
2023/04/08 06:50:53;;;;;;;2.30;1.30;;;20.10;51.50;;;;;;4918586;29;20507;-63
2023/04/08 06:53:19;;;;;;;2.90;1.20;;;20.10;51.40;;;;;;4936407;29;20058;-62
2023/04/08 06:55:44;;;;;;;5.18;1.42;;;20.10;51.40;;;;;;4919483;29;20138;-62
2023/04/08 06:58:10;;;;;;;1.73;1.08;;;20.10;51.40;;;;;;4935523;29;20071;-63
2023/04/08 07:00:36;;;;;;;4.03;1.35;;;20.10;51.50;;;;;;4936456;29;20175;-63
2023/04/08 07:03:01;;;;;;;1.92;0.95;;;20.10;51.40;;;;;;4918922;29;20051;-63
2023/04/08 07:05:27;;;;;;;3.55;1.27;;;20.10;51.50;;;;;;4935336;29;20040;-62
2023/04/08 07:07:52;;;;;;;2.30;1.10;;;20.10;51.60;;;;;;4936245;29;20048;-62
2023/04/08 07:10:18;;;;;;;3.47;1.20;;;20.10;51.60;;;;;;4918575;29;20040;-62
2023/04/08 07:12:44;;;;;;;4.40;1.35;;;20.20;51.70;;;;;;4935212;29;20051;-62
2023/04/08 07:15:10;;;;;;;4.97;1.35;;;20.20;51.90;;;;;;4935519;29;20399;-63
2023/04/08 07:17:35;;;;;;;3.70;1.40;;;20.20;52.10;;;;;;4903152;29;20044;-63
2023/04/08 07:20:01;;;;;;;10.13;1.45;;;20.20;52.30;;;;;;4934988;29;20115;-63
2023/04/08 07:22:26;;;;;;;5.47;1.58;;;20.20;52.40;;;;;;4919082;29;20098;-62
2023/04/08 07:24:52;;;;;;;4.78;1.25;;;20.20;52.50;;;;;;4935793;29;20055;-63
2023/04/08 07:27:18;;;;;;;3.28;1.52;;;20.30;52.70;;;;;;4934279;29;20078;-62
2023/04/08 07:29:43;;;;;;;5.22;1.20;;;20.30;52.70;;;;;;4948661;29;20040;-62
2023/04/08 07:32:09;;;;;;;3.10;1.20;;;20.30;52.70;;;;;;4949358;29;20122;-63
2023/04/08 07:34:35;;;;;;;3.85;1.23;;;20.30;52.80;;;;;;4934762;29;20048;-62
2023/04/08 07:37:01;;;;;;;4.50;1.42;;;20.40;52.90;;;;;;4935626;29;20048;-61
2023/04/08 07:39:27;;;;;;;2.83;1.35;;;20.40;52.80;;;;;;4935686;29;20179;-63
2023/04/08 07:41:52;;;;;;;4.60;1.23;;;20.40;52.90;;;;;;4917620;29;20043;-63
2023/04/08 07:44:18;;;;;;;4.93;1.50;;;20.40;52.80;;;;;;4935114;29;20484;-63
2023/04/08 07:46:45;;;;;;;4.07;1.35;;;20.40;52.80;;;;;;4934902;29;20055;-64
2023/04/08 07:49:11;;;;;;;7.07;1.50;;;20.40;52.70;;;;;;4934968;29;20044;-65
2023/04/08 07:51:37;;;;;;;2.38;1.05;;;20.50;52.70;;;;;;4918107;29;20059;-64
2023/04/08 07:54:02;;;;;;;5.93;1.77;;;20.50;53.40;;;;;;4934450;29;20048;-63
2023/04/08 07:56:28;;;;;;;3.95;1.40;;;20.50;52.60;;;;;;4935133;29;20054;-62
2023/04/08 07:58:53;;;;;;;4.13;1.40;;;20.50;52.70;;;;;;4935435;29;20134;-62
2023/04/08 08:01:20;;;;;;;5.60;1.33;;;20.50;52.80;;;;;;4934424;29;20039;-62
2023/04/08 08:03:47;;;;;;;4.22;1.40;;;20.50;52.80;;;;;;4935440;29;20058;-62
2023/04/08 08:06:13;;;;;;;3.08;1.45;;;20.50;52.90;;;;;;4934969;29;20048;-63
2023/04/08 08:08:38;;;;;;;5.25;1.63;;;20.50;52.90;;;;;;4934435;29;20161;-65
2023/04/08 08:11:04;;;;;;;5.40;1.70;;;20.50;52.90;;;;;;4917685;29;20492;-65
2023/04/08 08:13:30;;;;;;;2.72;1.35;;;20.50;52.80;;;;;;4935035;29;20097;-63
2023/04/08 08:15:55;;;;;;;3.60;1.30;;;20.50;53.40;;;;;;4917053;29;20047;-64
2023/04/08 08:18:21;;;;;;;4.47;1.52;;;20.50;52.70;;;;;;4917753;29;20103;-65
2023/04/08 08:20:47;;;;;;;9.48;2.22;;;20.50;52.70;;;;;;4935150;29;20044;-62
2023/04/08 08:23:12;;;;;;;11.10;1.83;;;20.50;52.80;;;;;;4934195;29;20040;-63
2023/04/08 08:25:38;;;;;;;6.45;1.63;;;20.50;53.00;;;;;;4934971;29;20048;-62
2023/04/08 08:28:03;;;;;;;6.28;1.75;;;20.50;53.10;;;;;;4934857;29;20132;-62
2023/04/08 08:30:29;;;;;;;10.32;1.95;;;20.50;53.10;;;;;;4917363;29;20048;-62
2023/04/08 08:32:57;;;;;;;7.63;1.80;;;20.50;53.20;;;;;;4948872;29;20050;-64
2023/04/08 08:35:23;;;;;;;7.22;1.75;;;20.50;53.20;;;;;;4953407;29;20483;-62
2023/04/08 08:37:49;;;;;;;7.85;1.95;;;20.50;53.20;;;;;;4946211;29;20062;-62
2023/04/08 08:40:15;;;;;;;14.77;2.58;;;20.50;53.30;;;;;;4934379;29;20048;-62
2023/04/08 08:42:41;;;;;;;4.90;1.70;;;20.50;53.40;;;;;;4917539;29;20505;-62
2023/04/08 08:45:07;;;;;;;8.82;1.85;;;20.50;53.30;;;;;;4901304;29;20122;-62
2023/04/08 08:47:32;;;;;;;10.75;1.70;;;20.50;53.30;;;;;;4917579;29;20495;-63
2023/04/08 08:49:58;;;;;;;7.35;1.90;;;20.50;53.30;;;;;;4933608;29;20052;-63
2023/04/08 08:52:23;;;;;;;6.60;1.98;;;20.50;53.20;;;;;;4917882;29;20097;-63
2023/04/08 08:54:58;;;;;;;5.25;1.70;;;20.50;53.30;;;;;;4934860;29;20059;-62
2023/04/08 08:57:24;;;;;;;6.70;1.70;;;20.50;53.30;;;;;;4917872;29;20052;-63
2023/04/08 08:59:50;;;;;;;8.10;1.95;;;20.50;53.30;;;;;;4917697;29;20057;-63
2023/04/08 09:02:26;;;;;;;8.70;2.17;;;20.50;53.30;;;;;;4935878;29;20047;-63
2023/04/08 09:04:59;;;;;;;6.40;1.70;;;20.50;53.40;;;;;;4920696;29;20069;-63
2023/04/08 09:07:25;;;;;;;3.28;1.45;;;20.50;53.40;;;;;;4938203;29;20126;-63
2023/04/08 09:09:51;;;;;;;9.98;2.50;;;20.50;53.40;;;;;;4921291;29;20073;-64
2023/04/08 09:12:17;;;;;;;8.32;2.15;;;20.50;53.40;;;;;;4920703;29;20423;-62
2023/04/08 09:14:42;;;;;;;4.25;1.50;;;20.50;53.30;;;;;;4938382;29;20047;-63
2023/04/08 09:17:08;;;;;;;6.25;1.95;;;20.50;53.20;;;;;;4937981;29;20052;-64
2023/04/08 09:19:34;;;;;;;5.40;1.75;;;20.40;53.10;;;;;;4937181;29;20043;-64
2023/04/08 09:22:06;;;;;;;5.82;1.77;;;20.40;53.20;;;;;;4920744;29;20044;-64
2023/04/08 09:24:32;;;;;;;5.72;1.90;;;20.40;53.30;;;;;;4937907;29;20048;-63
2023/04/08 09:26:57;;;;;;;5.68;1.58;;;20.40;53.30;;;;;;4937101;29;20054;-63
2023/04/08 09:29:24;;;;;;;3.55;1.33;;;20.40;53.30;;;;;;4938106;29;20079;-63
2023/04/08 09:31:55;;;;;;;6.00;1.88;;;20.40;53.30;;;;;;4920890;29;20070;-63
2023/04/08 09:34:22;;;;;;;5.50;1.90;;;20.40;53.20;;;;;;4936937;29;20044;-64
2023/04/08 09:36:50;;;;;;;2.72;1.30;;;20.40;53.20;;;;;;4937278;29;20055;-64
2023/04/08 09:39:16;;;;;;;4.85;1.48;;;20.40;53.20;;;;;;4924641;29;20050;-64
2023/04/08 09:41:42;;;;;;;4.53;1.75;;;20.40;53.10;;;;;;4957028;29;20047;-64
2023/04/08 09:44:09;;;;;;;4.55;1.77;;;20.40;53.00;;;;;;4942576;29;20102;-64
2023/04/08 09:46:50;;;;;;;5.22;1.58;;;20.40;53.00;;;;;;4940230;29;20055;-63
2023/04/08 09:49:27;;;;;;;6.22;1.55;;;20.40;53.00;;;;;;4924360;29;20047;-63
2023/04/08 09:51:56;;;;;;;5.22;1.73;;;20.40;53.00;;;;;;4920356;29;20091;-63
2023/04/08 09:54:22;;;;;;;5.80;1.67;;;20.40;53.10;;;;;;4936864;29;20131;-63
2023/04/08 09:56:53;;;;;;;4.47;1.50;;;20.40;53.00;;;;;;4904569;29;20135;-66
2023/04/08 09:59:20;;;;;;;4.55;1.50;;;20.40;53.00;;;;;;4915563;29;20051;-63
2023/04/08 10:01:51;;;;;;;3.70;1.52;;;20.30;52.90;;;;;;4904538;29;20039;-63
2023/04/08 10:04:19;;;;;;;4.87;2.37;;;20.30;52.80;;;;;;4936941;29;20127;-63
2023/04/08 10:06:50;;;;;;;6.38;2.08;;;20.30;52.70;;;;;;4920481;29;20387;-62
2023/04/08 10:09:15;;;;;;;5.90;1.98;;;20.30;52.70;;;;;;4914146;29;20052;-61
2023/04/08 10:11:41;;;;;;;8.77;2.40;;;20.30;52.70;;;;;;4937013;29;20130;-62
2023/04/08 10:14:08;;;;;;;7.68;1.90;;;20.30;52.90;;;;;;4919359;29;20048;-61
2023/04/08 10:16:34;;;;;;;4.70;1.98;;;20.30;53.00;;;;;;4919362;29;20055;-61
2023/04/08 10:19:00;;;;;;;5.63;1.90;;;20.30;53.10;;;;;;4936618;29;20044;-62
2023/04/08 10:21:32;;;;;;;3.55;1.70;;;20.30;53.20;;;;;;4919496;29;20052;-62
2023/04/08 10:23:58;;;;;;;5.40;1.90;;;20.30;53.30;;;;;;4936750;29;20047;-62
2023/04/08 10:26:35;;;;;;;2.90;1.70;;;20.30;53.30;;;;;;4936890;29;20055;-62
2023/04/08 10:29:20;;;;;;;8.40;1.75;;;20.30;53.50;;;;;;4935834;29;20066;-62
2023/04/08 10:31:46;;;;;;;4.07;1.58;;;20.30;53.50;;;;;;4936939;29;20087;-62
2023/04/08 10:34:20;;;;;;;6.32;2.10;;;20.30;53.40;;;;;;4953958;29;20479;-62
2023/04/08 10:36:46;;;;;;;4.43;1.92;;;20.30;53.40;;;;;;4954767;29;20110;-62
2023/04/08 10:39:12;;;;;;;5.53;1.77;;;20.30;53.50;;;;;;4944028;29;20039;-61
2023/04/08 10:41:44;;;;;;;5.05;1.70;;;20.30;53.40;;;;;;4936671;29;20048;-62
2023/04/08 10:44:20;;;;;;;4.95;1.95;;;20.30;53.40;;;;;;4935773;29;20044;-62
2023/04/08 10:46:46;;;;;;;4.43;1.95;;;20.30;53.40;;;;;;4919434;29;20139;-62
2023/04/08 10:49:12;;;;;;;3.58;1.50;;;20.30;53.40;;;;;;4936235;29;20039;-62
2023/04/08 10:51:38;;;;;;;4.25;1.67;;;20.30;53.40;;;;;;4902615;29;20487;-62
2023/04/08 10:54:11;;;;;;;4.93;1.90;;;20.30;53.40;;;;;;4936407;29;20143;-63
2023/04/08 10:56:51;;;;;;;5.00;2.10;;;20.30;53.40;;;;;;4935977;29;20044;-62
2023/04/08 10:59:25;;;;;;;3.17;1.90;;;20.30;53.40;;;;;;4918943;29;20047;-62
2023/04/08 11:01:51;;;;;;;4.15;1.80;;;20.30;53.40;;;;;;4919373;29;20487;-62
2023/04/08 11:04:18;;;;;;;6.40;1.80;;;20.30;53.40;;;;;;4934339;29;20055;-62
2023/04/08 11:06:44;;;;;;;3.60;1.70;;;20.30;53.40;;;;;;4948367;29;20511;-63
2023/04/08 11:09:10;;;;;;;7.10;2.03;;;20.30;53.40;;;;;;4937144;29;20047;-63
2023/04/08 11:11:36;;;;;;;3.75;2.00;;;20.30;53.40;;;;;;4941106;29;20131;-63
2023/04/08 11:14:02;;;;;;;3.90;1.88;;;20.30;53.50;;;;;;4931570;29;20122;-63
2023/04/08 11:16:28;;;;;;;3.92;1.50;;;20.30;53.70;;;;;;4954837;29;20126;-63
2023/04/08 11:18:54;;;;;;;4.57;2.10;;;20.30;53.60;;;;;;4936843;29;20047;-63
2023/04/08 11:21:22;;;;;;;3.50;1.88;;;20.30;53.70;;;;;;4938081;29;20101;-63
2023/04/08 11:23:51;;;;;;;4.28;1.92;;;20.20;53.60;;;;;;4954627;29;20406;-62
2023/04/08 11:26:18;;;;;;;3.47;1.75;;;20.20;53.60;;;;;;4953322;29;20051;-63
2023/04/08 11:28:44;;;;;;;3.17;1.75;;;20.20;53.60;;;;;;4921852;29;20043;-63
2023/04/08 11:31:10;;;;;;;5.82;2.10;;;20.20;53.60;;;;;;4937381;29;20054;-65
2023/04/08 11:33:36;;;;;;;5.20;2.08;;;20.20;53.60;;;;;;4929187;29;20035;-65
2023/04/08 11:36:05;;;;;;;8.45;2.10;;;20.20;53.60;;;;;;4935564;29;20059;-63
2023/04/08 11:38:30;;;;;;;6.60;2.15;;;20.20;53.60;;;;;;4935833;29;20179;-63
2023/04/08 11:41:00;;;;;;;5.20;2.40;;;20.20;53.60;;;;;;4934605;29;20135;-64
2023/04/08 11:43:25;;;;;;;5.93;2.05;;;20.20;53.60;;;;;;4935779;29;20032;-63
2023/04/08 11:45:51;;;;;;;3.92;2.22;;;20.20;53.60;;;;;;4917492;29;20523;-64
2023/04/08 11:48:17;;;;;;;5.18;2.10;;;20.20;53.60;;;;;;4918272;29;20043;-64
2023/04/08 11:50:43;;;;;;;4.03;2.28;;;20.20;53.60;;;;;;4935163;29;20138;-64
2023/04/08 11:53:18;;;;;;;3.47;2.55;;;20.20;53.70;;;;;;4934351;29;20058;-63
2023/04/08 11:55:44;;;;;;;5.47;2.10;;;20.20;53.70;;;;;;4918396;29;20055;-63
2023/04/08 11:58:09;;;;;;;4.15;2.28;;;20.20;53.70;;;;;;4917965;29;20043;-63
2023/04/08 12:00:36;;;;;;;4.45;2.20;;;20.20;53.70;;;;;;4934589;29;20079;-63
2023/04/08 12:03:01;;;;;;;5.10;2.40;;;20.20;53.80;;;;;;4918381;29;20054;-63
2023/04/08 12:05:27;;;;;;;5.38;2.30;;;20.20;53.80;;;;;;4918202;29;20052;-64
2023/04/08 12:07:52;;;;;;;5.05;2.03;;;20.20;53.80;;;;;;4934528;29;20040;-63
2023/04/08 12:10:18;;;;;;;4.90;2.53;;;20.20;53.90;;;;;;4918124;29;20082;-64
2023/04/08 12:12:44;;;;;;;5.47;2.38;;;20.20;53.90;;;;;;4918080;29;20455;-63
2023/04/08 12:15:10;;;;;;;5.35;2.35;;;20.30;54.00;;;;;;4917365;29;20135;-63
2023/04/08 12:17:37;;;;;;;5.35;2.13;;;20.30;54.10;;;;;;4935201;29;20151;-64
2023/04/08 12:20:03;;;;;;;4.13;2.10;;;20.30;54.10;;;;;;4934951;29;20043;-63
2023/04/08 12:22:29;;;;;;;5.80;2.55;;;20.30;54.10;;;;;;4917608;29;20055;-63
2023/04/08 12:24:55;;;;;;;3.85;2.40;;;20.30;54.20;;;;;;4934954;29;20139;-63
2023/04/08 12:27:20;;;;;;;4.75;2.30;;;20.30;54.10;;;;;;4934911;29;20048;-63
2023/04/08 12:29:48;;;;;;;3.17;1.83;;;20.30;54.20;;;;;;4933931;29;20040;-63
2023/04/08 12:32:13;;;;;;;4.88;2.47;;;20.30;54.20;;;;;;4934642;29;20052;-63
2023/04/08 12:34:39;;;;;;;3.20;1.95;;;20.30;54.30;;;;;;4934937;29;20153;-63
2023/04/08 12:37:04;;;;;;;5.50;2.63;;;20.30;54.20;;;;;;4936277;29;20411;-63
2023/04/08 12:39:30;;;;;;;5.45;2.30;;;20.30;54.20;;;;;;4932791;29;20105;-62
2023/04/08 12:41:55;;;;;;;4.00;2.33;;;20.30;54.30;;;;;;4957297;29;20071;-63
2023/04/08 12:44:21;;;;;;;4.13;2.30;;;20.30;54.30;;;;;;4955455;29;20043;-62